Time;durP1;ratioP1;P1;durP2;ratioP2;P2;SDS_P1;SDS_P2;PMS_P1;PMS_P2;Temp;Humidity;BMP_temperature;BMP_pressure;BME280_temperature;BME280_humidity;BME280_pressure;Samples;Min_cycle;Max_cycle;Signal;HPM_P1;HPM_P2
2022/03/12 09:31:48;;;;;;;1.67;1.00;;;13.60;99.90;;;;;;4318110;23;20236;-75
2022/03/12 09:34:15;;;;;;;3.70;0.90;;;13.40;99.90;;;;;;4955380;28;20307;-75
2022/03/12 09:36:42;;;;;;;2.97;0.80;;;13.30;99.90;;;;;;4956367;28;20205;-75
2022/03/12 09:39:10;;;;;;;1.30;0.60;;;13.10;99.90;;;;;;4956000;28;20230;-75
2022/03/12 09:41:38;;;;;;;2.40;1.00;;;13.10;99.90;;;;;;4956365;29;20278;-75
2022/03/12 09:44:05;;;;;;;1.83;0.70;;;13.30;99.90;;;;;;4956139;28;20270;-75
2022/03/12 09:46:32;;;;;;;1.23;0.73;;;13.60;99.90;;;;;;4956221;28;20567;-75
2022/03/12 09:49:00;;;;;;;1.87;0.60;;;13.60;99.90;;;;;;4956041;28;20232;-75
2022/03/12 09:51:29;;;;;;;2.80;0.60;;;13.40;99.90;;;;;;4942066;28;20553;-75
2022/03/12 09:53:56;;;;;;;2.23;0.93;;;13.40;99.90;;;;;;4948099;29;20294;-75
2022/03/12 09:56:23;;;;;;;2.37;0.60;;;13.40;99.90;;;;;;4956376;28;20787;-75
2022/03/12 09:58:49;;;;;;;1.83;0.73;;;13.40;99.90;;;;;;4953072;28;20231;-75
2022/03/12 10:01:17;;;;;;;0.70;0.67;;;13.40;99.90;;;;;;4955400;28;20232;-76
2022/03/12 10:03:44;;;;;;;1.93;0.60;;;13.60;99.90;;;;;;4955765;28;20200;-76
2022/03/12 10:06:12;;;;;;;3.93;0.73;;;13.70;99.90;;;;;;4956198;28;20701;-76
2022/03/12 10:08:38;;;;;;;1.10;0.60;;;13.80;99.90;;;;;;4955105;28;20231;-77
2022/03/12 10:11:05;;;;;;;1.77;0.97;;;13.90;99.90;;;;;;4955896;28;20208;-77
2022/03/12 10:13:32;;;;;;;1.17;0.53;;;14.10;99.90;;;;;;4955895;29;20212;-77
2022/03/12 10:15:59;;;;;;;2.27;0.70;;;14.00;99.90;;;;;;4956152;28;20207;-76
2022/03/12 10:18:26;;;;;;;1.63;0.50;;;14.10;99.90;;;;;;4955853;28;20227;-77
2022/03/12 10:20:53;;;;;;;1.43;0.53;;;14.10;99.90;;;;;;4955698;28;20243;-76
2022/03/12 10:23:21;;;;;;;2.07;0.50;;;14.10;99.90;;;;;;4954310;28;20207;-76
2022/03/12 10:25:48;;;;;;;1.23;0.40;;;14.10;99.90;;;;;;4956277;28;20234;-76
2022/03/12 10:28:15;;;;;;;3.13;0.70;;;14.20;99.90;;;;;;4955855;28;20259;-76
2022/03/12 10:30:42;;;;;;;1.30;0.60;;;14.30;99.90;;;;;;4951249;28;20231;-76
2022/03/12 10:33:09;;;;;;;6.20;0.80;;;14.40;99.90;;;;;;4936326;29;20223;-77
2022/03/12 10:35:37;;;;;;;1.93;0.83;;;14.40;99.90;;;;;;4936534;29;20233;-76
2022/03/12 10:38:10;;;;;;;0.90;0.47;;;14.40;99.90;;;;;;4936362;29;20231;-77
2022/03/12 10:40:39;;;;;;;3.07;0.70;;;14.40;99.90;;;;;;4936297;29;20268;-76
2022/03/12 10:43:12;;;;;;;1.87;0.60;;;14.50;99.90;;;;;;4935450;29;20213;-76
2022/03/12 10:45:42;;;;;;;1.83;0.67;;;14.40;99.90;;;;;;4936606;29;20260;-76
2022/03/12 10:48:09;;;;;;;0.93;0.57;;;14.60;99.90;;;;;;4936171;29;20583;-76
2022/03/12 10:50:40;;;;;;;1.87;0.50;;;14.60;99.90;;;;;;4936019;29;20367;-76
2022/03/12 10:53:08;;;;;;;2.30;0.60;;;14.60;99.90;;;;;;4936186;29;20205;-76
2022/03/12 10:55:37;;;;;;;1.70;0.60;;;14.80;99.90;;;;;;4940359;29;20207;-76
2022/03/12 10:58:08;;;;;;;2.40;0.70;;;14.90;99.90;;;;;;4954925;28;20306;-76
2022/03/12 11:00:38;;;;;;;1.33;0.50;;;15.20;99.90;;;;;;4955078;28;20208;-76
2022/03/12 11:03:08;;;;;;;2.13;0.30;;;15.20;99.90;;;;;;4954884;28;20738;-76
2022/03/12 11:05:36;;;;;;;2.43;0.60;;;15.30;99.90;;;;;;4935992;28;20247;-76
2022/03/12 11:08:13;;;;;;;1.33;0.50;;;15.10;99.90;;;;;;4935476;29;20220;-76
2022/03/12 11:10:46;;;;;;;1.20;0.30;;;15.10;99.90;;;;;;4937617;29;20822;-76
2022/03/12 11:13:29;;;;;;;2.27;0.67;;;15.00;99.90;;;;;;4954674;28;20671;-76
2022/03/12 11:16:18;;;;;;;3.97;0.73;;;15.10;99.90;;;;;;4954885;28;20254;-77
2022/03/12 11:19:02;;;;;;;3.07;0.60;;;15.20;99.90;;;;;;4954815;28;20236;-76
2022/03/12 11:21:33;;;;;;;1.10;0.37;;;15.20;99.90;;;;;;4954398;28;20239;-76
2022/03/12 11:24:00;;;;;;;1.47;0.40;;;15.40;99.90;;;;;;4954784;28;20212;-76
2022/03/12 11:26:28;;;;;;;0.67;0.40;;;15.30;99.90;;;;;;4954865;28;20208;-76
2022/03/12 11:28:59;;;;;;;4.53;0.87;;;15.20;99.90;;;;;;4953131;28;20750;-76
2022/03/12 11:31:42;;;;;;;2.03;0.50;;;15.20;99.90;;;;;;4942044;28;20223;-77
2022/03/12 11:34:22;;;;;;;2.37;0.67;;;15.30;99.90;;;;;;4934807;29;20223;-76
2022/03/12 11:37:04;;;;;;;1.63;0.50;;;15.20;99.90;;;;;;4934959;29;20205;-76
2022/03/12 11:39:33;;;;;;;1.90;0.50;;;15.60;99.90;;;;;;4934852;29;20710;-76
2022/03/12 11:42:06;;;;;;;1.93;0.47;;;15.50;99.90;;;;;;4935145;29;20240;-77
2022/03/12 11:44:35;;;;;;;2.73;0.60;;;15.60;99.90;;;;;;4935517;29;20216;-76
2022/03/12 11:47:02;;;;;;;2.03;0.40;;;15.60;99.90;;;;;;4935347;29;20205;-76
2022/03/12 11:49:30;;;;;;;1.60;0.67;;;15.70;99.90;;;;;;4935466;29;20289;-76
2022/03/12 11:51:57;;;;;;;2.63;0.83;;;15.80;99.90;;;;;;4935307;29;20227;-76
2022/03/12 11:54:24;;;;;;;2.87;0.40;;;16.00;99.90;;;;;;4937129;29;20216;-76
2022/03/12 11:56:51;;;;;;;1.03;0.40;;;16.00;99.90;;;;;;4938922;29;20225;-77
2022/03/12 11:59:18;;;;;;;4.57;0.77;;;15.80;99.90;;;;;;4938795;29;20255;-76
2022/03/12 12:02:01;;;;;;;3.07;0.67;;;15.60;99.90;;;;;;4938785;29;20236;-76
2022/03/12 12:04:29;;;;;;;1.17;0.50;;;15.50;99.90;;;;;;4939278;29;20265;-76
2022/03/12 12:06:57;;;;;;;1.10;0.40;;;15.40;99.90;;;;;;4938980;29;20529;-76
2022/03/12 12:09:23;;;;;;;4.93;0.97;;;15.60;99.90;;;;;;4938591;29;20311;-77
2022/03/12 12:11:50;;;;;;;2.70;0.37;;;15.80;99.90;;;;;;4939017;29;20219;-76
2022/03/12 12:14:19;;;;;;;2.63;0.57;;;15.90;99.90;;;;;;4938704;29;20213;-76
2022/03/12 12:16:47;;;;;;;1.73;0.63;;;15.70;99.90;;;;;;4939164;29;20260;-76
2022/03/12 12:19:16;;;;;;;1.63;0.43;;;15.70;99.90;;;;;;4938465;29;20225;-77
2022/03/12 12:21:43;;;;;;;2.57;0.47;;;15.60;99.90;;;;;;4938524;29;20332;-77
2022/03/12 12:24:26;;;;;;;2.47;0.57;;;15.50;99.90;;;;;;4952167;29;20258;-76
2022/03/12 12:27:01;;;;;;;4.03;1.37;;;15.60;99.90;;;;;;4955860;28;20211;-76
2022/03/12 12:29:49;;;;;;;2.80;0.50;;;15.60;99.90;;;;;;4956187;28;20230;-76
2022/03/12 12:32:20;;;;;;;2.20;0.50;;;15.60;99.90;;;;;;4947033;29;20215;-76
2022/03/12 12:35:13;;;;;;;4.00;0.53;;;15.70;99.90;;;;;;4957067;28;20211;-76
2022/03/12 12:37:46;;;;;;;2.57;0.50;;;15.80;99.90;;;;;;4955698;28;20208;-76
2022/03/12 12:40:20;;;;;;;2.13;0.43;;;15.90;99.90;;;;;;4953425;29;20201;-76
2022/03/12 12:42:49;;;;;;;3.13;0.50;;;16.00;99.90;;;;;;4938022;29;20243;-76
2022/03/12 12:45:17;;;;;;;1.90;0.40;;;16.10;99.90;;;;;;4938239;29;20232;-76
2022/03/12 12:47:46;;;;;;;1.83;0.57;;;16.10;99.90;;;;;;4941737;29;20239;-76
2022/03/12 12:50:21;;;;;;;3.40;0.87;;;15.90;99.90;;;;;;4956689;28;20252;-76
2022/03/12 12:53:11;;;;;;;1.23;0.40;;;16.00;99.90;;;;;;4955199;29;20219;-76
2022/03/12 12:55:38;;;;;;;1.63;0.60;;;16.20;99.90;;;;;;4954281;28;20203;-76
2022/03/12 12:58:05;;;;;;;2.97;0.33;;;16.40;99.90;;;;;;4956322;28;20702;-76
2022/03/12 13:00:33;;;;;;;1.30;0.53;;;16.30;99.90;;;;;;4956786;28;20207;-76
2022/03/12 13:03:08;;;;;;;0.80;0.30;;;16.40;99.90;;;;;;4953792;29;20232;-76
2022/03/12 13:05:46;;;;;;;5.40;0.60;;;16.50;99.90;;;;;;4954877;28;20200;-77
2022/03/12 13:08:14;;;;;;;2.10;0.50;;;16.70;99.90;;;;;;4955760;28;20714;-76
2022/03/12 13:10:41;;;;;;;0.83;0.50;;;16.80;99.90;;;;;;4956023;28;20200;-76
2022/03/12 13:13:09;;;;;;;3.67;1.07;;;16.90;99.90;;;;;;4956165;28;20204;-76
2022/03/12 13:15:38;;;;;;;1.53;0.73;;;16.70;99.90;;;;;;4956335;28;20203;-76
2022/03/12 13:18:42;;;;;;;3.53;0.70;;;16.80;99.90;;;;;;4956106;28;20271;-77
2022/03/12 13:21:27;;;;;;;3.27;1.03;;;16.80;99.90;;;;;;4949732;28;20214;-75
2022/03/12 13:23:54;;;;;;;1.83;0.60;;;16.40;99.90;;;;;;4953794;29;20568;-74
2022/03/12 13:26:22;;;;;;;4.37;0.40;;;16.40;99.90;;;;;;4955288;28;20219;-74
2022/03/12 13:28:51;;;;;;;5.80;1.00;;;16.00;99.90;;;;;;4953414;28;20228;-76
2022/03/12 13:31:24;;;;;;;3.07;0.93;;;15.80;99.90;;;;;;4954102;28;20220;-75
2022/03/12 13:34:09;;;;;;;4.07;0.60;;;15.70;99.90;;;;;;4954949;28;20222;-76
2022/03/12 13:36:41;;;;;;;1.83;0.70;;;16.00;99.90;;;;;;4953811;28;20558;-76
2022/03/12 13:39:10;;;;;;;3.47;0.90;;;16.30;99.90;;;;;;4954833;28;20228;-74
2022/03/12 13:41:38;;;;;;;0.97;0.40;;;16.60;99.90;;;;;;4955035;28;20227;-76
2022/03/12 13:44:06;;;;;;;4.07;0.53;;;16.80;99.90;;;;;;4942132;28;20205;-77
2022/03/12 13:46:34;;;;;;;2.43;0.60;;;16.70;99.90;;;;;;4950235;29;20216;-75
2022/03/12 13:49:04;;;;;;;1.70;0.67;;;16.70;99.90;;;;;;4954744;28;20236;-74
2022/03/12 13:51:33;;;;;;;2.27;0.60;;;16.50;99.90;;;;;;4953901;28;20293;-76
2022/03/12 13:54:06;;;;;;;1.00;0.40;;;16.40;99.90;;;;;;4955170;28;20263;-76
2022/03/12 13:56:32;;;;;;;1.10;0.43;;;16.40;99.90;;;;;;4952203;28;20208;-75
2022/03/12 13:59:06;;;;;;;2.10;0.50;;;16.60;99.90;;;;;;4934760;29;20258;-75
2022/03/12 14:01:35;;;;;;;1.53;0.57;;;16.70;99.90;;;;;;4948051;29;20223;-75
2022/03/12 14:04:04;;;;;;;1.67;0.60;;;16.60;99.90;;;;;;4954503;28;20223;-75
2022/03/12 14:06:34;;;;;;;3.30;0.60;;;16.30;99.90;;;;;;4953497;28;20570;-75
2022/03/12 14:09:04;;;;;;;1.80;0.57;;;16.20;99.90;;;;;;4954256;28;20746;-76
2022/03/12 14:11:36;;;;;;;2.37;0.60;;;16.10;99.90;;;;;;4954562;28;20215;-76
2022/03/12 14:14:07;;;;;;;2.00;0.97;;;16.10;99.90;;;;;;4954241;28;20216;-76
2022/03/12 14:16:38;;;;;;;1.90;0.60;;;16.10;99.90;;;;;;4954669;28;20212;-76
2022/03/12 14:19:07;;;;;;;1.03;0.57;;;16.00;99.90;;;;;;4954222;28;20228;-77
2022/03/12 14:21:42;;;;;;;2.80;0.80;;;16.00;99.90;;;;;;4954025;28;20215;-77
2022/03/12 14:24:18;;;;;;;3.77;0.70;;;16.10;99.90;;;;;;4953838;28;20656;-77
2022/03/12 14:26:53;;;;;;;1.27;0.77;;;16.00;99.90;;;;;;4953244;28;20230;-79
2022/03/12 14:29:23;;;;;;;1.27;0.50;;;15.90;99.90;;;;;;4953806;28;20224;-77
2022/03/12 14:31:50;;;;;;;2.20;0.50;;;15.70;99.90;;;;;;4954320;28;20220;-77
2022/03/12 14:34:18;;;;;;;2.27;0.77;;;15.80;99.90;;;;;;4953726;28;20207;-77
2022/03/12 14:36:46;;;;;;;1.40;0.70;;;15.90;99.90;;;;;;4954100;28;20675;-78
2022/03/12 14:39:14;;;;;;;2.20;0.83;;;16.00;99.90;;;;;;4954468;28;20255;-77
2022/03/12 14:41:42;;;;;;;1.30;0.60;;;16.10;99.90;;;;;;4953370;28;20220;-77
2022/03/12 14:44:11;;;;;;;4.53;0.60;;;15.80;99.90;;;;;;4953685;28;20624;-78
2022/03/12 14:46:41;;;;;;;1.57;0.70;;;15.90;99.90;;;;;;4954170;28;20623;-77
2022/03/12 14:49:19;;;;;;;2.50;0.50;;;16.10;99.90;;;;;;4953607;28;20267;-77
2022/03/12 14:51:50;;;;;;;3.37;0.53;;;16.00;99.90;;;;;;4954500;28;20207;-77
2022/03/12 14:54:21;;;;;;;1.83;0.90;;;15.80;99.90;;;;;;4954932;28;20204;-77
2022/03/12 14:56:48;;;;;;;0.80;0.60;;;15.90;99.90;;;;;;4954571;28;20223;-77
2022/03/12 14:59:15;;;;;;;1.20;0.70;;;16.00;99.90;;;;;;4954945;28;20224;-76
2022/03/12 15:01:42;;;;;;;1.17;0.57;;;16.00;99.90;;;;;;4955060;28;20212;-77
2022/03/12 15:04:09;;;;;;;2.83;0.63;;;15.90;99.90;;;;;;4954507;28;20204;-76
2022/03/12 15:06:36;;;;;;;1.77;0.50;;;15.90;99.90;;;;;;4954328;28;20208;-76
2022/03/12 15:09:09;;;;;;;4.13;0.70;;;15.70;99.90;;;;;;4954125;28;20725;-76
2022/03/12 15:11:36;;;;;;;1.17;0.60;;;15.70;99.90;;;;;;4954908;28;20567;-77
2022/03/12 15:14:04;;;;;;;2.60;0.50;;;15.70;99.90;;;;;;4955184;28;20219;-76
2022/03/12 15:16:32;;;;;;;3.20;0.80;;;15.40;99.90;;;;;;4955071;28;20267;-76
2022/03/12 15:18:59;;;;;;;3.07;0.60;;;15.10;99.90;;;;;;4954656;28;20235;-77
2022/03/12 15:21:26;;;;;;;1.73;0.50;;;15.10;99.90;;;;;;4955163;28;20203;-76
2022/03/12 15:23:54;;;;;;;1.63;0.40;;;15.10;99.90;;;;;;4955229;28;20238;-76
2022/03/12 15:26:22;;;;;;;1.57;0.57;;;15.10;99.90;;;;;;4955059;28;20258;-76
2022/03/12 15:28:50;;;;;;;1.53;0.50;;;15.20;99.90;;;;;;4954287;28;20224;-76
2022/03/12 15:31:18;;;;;;;1.27;0.60;;;15.10;99.90;;;;;;4954913;28;20223;-78
2022/03/12 15:33:51;;;;;;;1.47;0.60;;;15.00;99.90;;;;;;4954808;28;20212;-78
2022/03/12 15:36:19;;;;;;;1.53;0.63;;;15.20;99.90;;;;;;4954660;28;20217;-76
2022/03/12 15:38:47;;;;;;;3.00;0.60;;;15.10;99.90;;;;;;4954433;28;20228;-76
2022/03/12 15:41:17;;;;;;;0.90;0.60;;;15.00;99.90;;;;;;4954453;28;20218;-76
2022/03/12 15:43:47;;;;;;;1.87;0.73;;;15.00;99.90;;;;;;4954506;28;20243;-75
2022/03/12 15:46:14;;;;;;;0.73;0.53;;;14.90;99.90;;;;;;4955101;28;20216;-76
2022/03/12 15:48:41;;;;;;;1.23;0.67;;;14.80;99.90;;;;;;4954710;28;20599;-77
2022/03/12 15:51:09;;;;;;;1.17;0.70;;;14.70;99.90;;;;;;4954833;28;20230;-77
2022/03/12 15:53:36;;;;;;;1.03;0.63;;;14.80;99.90;;;;;;4954840;28;20212;-77
2022/03/12 15:56:03;;;;;;;1.03;0.70;;;14.90;99.90;;;;;;4954725;28;20670;-77
2022/03/12 15:58:30;;;;;;;3.07;0.90;;;14.90;99.90;;;;;;4954461;28;20227;-77
2022/03/12 16:00:58;;;;;;;1.00;0.60;;;14.90;99.90;;;;;;4954487;28;20563;-78
2022/03/12 16:03:25;;;;;;;2.07;0.60;;;15.00;99.90;;;;;;4954374;28;20235;-76
2022/03/12 16:05:52;;;;;;;2.13;0.63;;;15.00;99.90;;;;;;4953934;28;20208;-74
2022/03/12 16:08:19;;;;;;;2.63;0.73;;;15.10;99.90;;;;;;4954021;28;20224;-75
2022/03/12 16:10:46;;;;;;;1.70;0.80;;;15.00;99.90;;;;;;4954317;28;20243;-75
2022/03/12 16:13:13;;;;;;;4.73;0.80;;;14.90;99.90;;;;;;4954389;28;20215;-77
2022/03/12 16:15:40;;;;;;;1.67;0.70;;;14.70;99.90;;;;;;4954456;29;20559;-77
2022/03/12 16:18:13;;;;;;;1.10;0.67;;;14.70;99.90;;;;;;4954384;28;20228;-77
2022/03/12 16:20:42;;;;;;;1.13;0.60;;;14.60;99.90;;;;;;4954396;28;20243;-76
2022/03/12 16:23:12;;;;;;;1.17;0.60;;;14.70;99.90;;;;;;4954292;28;20282;-76
2022/03/12 16:25:38;;;;;;;1.67;0.40;;;14.60;99.90;;;;;;4954890;28;20208;-77
2022/03/12 16:28:06;;;;;;;0.97;0.40;;;14.60;99.90;;;;;;4954344;28;20228;-76
2022/03/12 16:30:33;;;;;;;0.80;0.50;;;14.50;99.90;;;;;;4954105;28;20212;-76
2022/03/12 16:33:02;;;;;;;1.10;0.70;;;14.60;99.90;;;;;;4954386;28;20234;-77
2022/03/12 16:35:31;;;;;;;0.70;0.50;;;14.60;99.90;;;;;;4954419;28;20244;-76
2022/03/12 16:37:59;;;;;;;3.77;0.70;;;14.70;99.90;;;;;;4954076;28;20595;-76
2022/03/12 16:40:32;;;;;;;1.00;0.70;;;14.70;99.90;;;;;;4955817;28;20208;-76
2022/03/12 16:42:59;;;;;;;1.73;0.57;;;14.70;99.90;;;;;;4957894;28;20241;-77
2022/03/12 16:45:26;;;;;;;1.47;0.60;;;14.70;99.90;;;;;;4949552;28;20295;-77
2022/03/12 16:47:58;;;;;;;1.30;0.77;;;14.70;99.90;;;;;;4950025;28;20240;-77
2022/03/12 16:50:26;;;;;;;0.80;0.40;;;14.60;99.90;;;;;;4951032;29;20219;-78
2022/03/12 16:52:54;;;;;;;1.03;0.57;;;14.60;99.90;;;;;;4952391;28;20216;-76
2022/03/12 16:55:22;;;;;;;1.77;0.60;;;14.50;99.90;;;;;;4951433;28;20678;-76
2022/03/12 16:57:53;;;;;;;0.97;0.50;;;14.50;99.90;;;;;;4953430;28;20255;-77
2022/03/12 17:00:23;;;;;;;1.13;0.60;;;14.50;99.90;;;;;;4954751;29;20291;-77
2022/03/12 17:02:50;;;;;;;0.70;0.40;;;14.50;99.90;;;;;;4954729;28;20251;-76
2022/03/12 17:05:17;;;;;;;1.70;0.60;;;14.50;99.90;;;;;;4954247;28;20218;-77
2022/03/12 17:07:44;;;;;;;1.00;0.60;;;14.50;99.90;;;;;;4955116;28;20271;-77
2022/03/12 17:10:12;;;;;;;0.67;0.50;;;14.50;99.90;;;;;;4955488;29;20212;-74
2022/03/12 17:12:39;;;;;;;1.00;0.70;;;14.50;99.90;;;;;;4953153;28;20214;-76
2022/03/12 17:15:08;;;;;;;0.77;0.50;;;14.50;99.90;;;;;;4954377;28;20215;-75
2022/03/12 17:17:35;;;;;;;0.77;0.50;;;14.40;99.90;;;;;;4945839;28;20208;-76
2022/03/12 17:20:07;;;;;;;0.80;0.60;;;14.40;99.90;;;;;;4954530;29;20247;-77
2022/03/12 17:22:34;;;;;;;1.20;0.63;;;14.30;99.90;;;;;;4952362;28;20209;-76
2022/03/12 17:25:07;;;;;;;0.60;0.50;;;14.20;99.90;;;;;;4956836;28;20215;-76
2022/03/12 17:27:36;;;;;;;1.27;0.70;;;14.20;99.90;;;;;;4951958;28;20314;-75
2022/03/12 17:30:09;;;;;;;1.37;0.77;;;14.10;99.90;;;;;;4954146;28;20209;-76
2022/03/12 17:32:36;;;;;;;1.23;0.80;;;14.20;99.90;;;;;;4952926;28;20224;-75
2022/03/12 17:35:03;;;;;;;1.13;0.70;;;14.20;99.90;;;;;;4952111;28;20324;-77
2022/03/12 17:37:30;;;;;;;1.23;0.80;;;14.10;99.90;;;;;;4951361;28;20216;-77
2022/03/12 17:39:58;;;;;;;1.10;0.70;;;14.10;99.90;;;;;;4954440;28;20270;-77
2022/03/12 17:42:26;;;;;;;1.13;0.60;;;14.10;99.90;;;;;;4953092;28;20247;-77
2022/03/12 17:44:54;;;;;;;0.97;0.90;;;14.20;99.90;;;;;;4953430;29;20326;-77
2022/03/12 17:47:21;;;;;;;1.23;0.90;;;14.10;99.90;;;;;;4955937;28;20212;-77
2022/03/12 17:49:47;;;;;;;1.23;0.60;;;14.10;99.90;;;;;;4955681;28;20228;-76
2022/03/12 17:52:15;;;;;;;1.37;0.90;;;14.10;99.90;;;;;;4955755;28;20204;-76
2022/03/12 17:54:42;;;;;;;1.07;0.70;;;14.20;99.90;;;;;;4956340;28;20216;-78
2022/03/12 17:57:09;;;;;;;1.07;0.70;;;14.20;99.90;;;;;;4956388;28;20567;-77
2022/03/12 17:59:36;;;;;;;1.73;0.80;;;14.20;99.90;;;;;;4956300;28;20231;-74
2022/03/12 18:02:05;;;;;;;1.47;0.80;;;14.20;99.90;;;;;;4956415;28;20616;-77
2022/03/12 18:04:33;;;;;;;1.13;0.80;;;14.10;99.90;;;;;;4956238;28;20236;-77
2022/03/12 18:07:00;;;;;;;1.53;0.93;;;14.00;99.90;;;;;;4956063;28;20207;-76
2022/03/12 18:09:26;;;;;;;0.93;0.67;;;14.10;99.90;;;;;;4955635;28;20228;-77
2022/03/12 18:11:55;;;;;;;1.60;0.90;;;14.10;99.90;;;;;;4946742;28;20588;-76
2022/03/12 18:14:22;;;;;;;1.43;0.90;;;14.00;99.90;;;;;;4951548;28;20304;-75
2022/03/12 18:16:49;;;;;;;2.90;1.10;;;14.10;99.90;;;;;;4952224;28;20322;-76
2022/03/12 18:19:18;;;;;;;1.63;1.10;;;14.10;99.90;;;;;;4955337;28;20231;-75
2022/03/12 18:21:50;;;;;;;1.73;1.10;;;13.90;99.90;;;;;;4950888;28;20212;-75
2022/03/12 18:24:18;;;;;;;1.70;1.20;;;13.80;99.90;;;;;;4950092;28;20608;-77
2022/03/12 18:26:45;;;;;;;1.87;0.90;;;13.80;99.90;;;;;;4955579;28;20298;-77
2022/03/12 18:29:12;;;;;;;1.70;1.10;;;13.80;99.90;;;;;;4953594;28;20232;-76
2022/03/12 18:31:40;;;;;;;3.63;0.83;;;13.70;99.90;;;;;;4955011;28;20226;-75
2022/03/12 18:34:06;;;;;;;1.97;1.10;;;13.60;99.90;;;;;;4955481;28;20279;-74
2022/03/12 18:36:35;;;;;;;1.87;1.07;;;13.50;99.90;;;;;;4955423;28;20208;-74
2022/03/12 18:39:02;;;;;;;1.87;1.10;;;13.50;99.90;;;;;;4955498;28;20228;-75
2022/03/12 18:41:29;;;;;;;1.70;1.00;;;13.50;99.90;;;;;;4955084;28;20214;-76
2022/03/12 18:43:58;;;;;;;1.90;1.10;;;13.50;99.90;;;;;;4955037;28;20232;-74
2022/03/12 18:46:25;;;;;;;2.37;1.23;;;13.50;99.90;;;;;;4954726;28;20312;-76
2022/03/12 18:48:52;;;;;;;1.77;0.83;;;13.50;99.90;;;;;;4954871;28;20238;-77
2022/03/12 18:51:19;;;;;;;2.87;1.10;;;13.50;99.90;;;;;;4955039;28;20627;-77
2022/03/12 18:53:47;;;;;;;2.43;1.30;;;13.40;99.90;;;;;;4955195;28;20215;-76
2022/03/12 18:56:14;;;;;;;1.37;1.03;;;13.40;99.90;;;;;;4955065;28;20298;-76
2022/03/12 18:58:41;;;;;;;3.53;1.47;;;13.40;99.90;;;;;;4955364;28;20231;-76
2022/03/12 19:01:08;;;;;;;1.93;1.20;;;13.40;99.90;;;;;;4955161;28;20212;-75
2022/03/12 19:03:35;;;;;;;2.53;1.20;;;13.40;99.90;;;;;;4953876;28;20235;-78
2022/03/12 19:06:02;;;;;;;2.50;1.40;;;13.30;99.90;;;;;;4955229;28;20214;-75
2022/03/12 19:08:32;;;;;;;1.60;1.20;;;13.10;99.90;;;;;;4955182;28;20228;-74
2022/03/12 19:11:02;;;;;;;1.60;1.03;;;13.00;99.90;;;;;;4954502;28;20219;-76
2022/03/12 19:13:29;;;;;;;1.90;1.10;;;12.90;99.90;;;;;;4955001;28;20216;-76
2022/03/12 19:15:56;;;;;;;1.40;1.07;;;12.80;99.90;;;;;;4954827;28;20582;-78
2022/03/12 19:18:23;;;;;;;1.87;0.90;;;12.80;99.90;;;;;;4954742;28;20318;-77
2022/03/12 19:20:51;;;;;;;1.93;1.10;;;12.70;99.90;;;;;;4954935;28;20655;-75
2022/03/12 19:23:18;;;;;;;1.00;0.80;;;12.60;99.90;;;;;;4954863;28;20208;-76
2022/03/12 19:25:45;;;;;;;2.70;0.87;;;12.60;99.90;;;;;;4955097;28;20214;-76
2022/03/12 19:28:13;;;;;;;2.50;1.10;;;12.60;99.90;;;;;;4955187;28;20236;-77
2022/03/12 19:30:40;;;;;;;2.00;1.10;;;12.50;99.90;;;;;;4954878;28;20231;-74
2022/03/12 19:33:08;;;;;;;2.13;1.07;;;12.60;99.90;;;;;;4954712;28;20230;-76
2022/03/12 19:35:35;;;;;;;2.03;1.00;;;12.50;99.90;;;;;;4955187;28;20208;-77
2022/03/12 19:38:04;;;;;;;2.00;0.90;;;12.40;99.90;;;;;;4954769;28;20706;-76
2022/03/12 19:40:31;;;;;;;1.20;0.80;;;12.30;99.90;;;;;;4954878;28;20215;-76
2022/03/12 19:42:58;;;;;;;1.77;1.00;;;12.20;99.90;;;;;;4955227;28;20211;-77
2022/03/12 19:45:26;;;;;;;1.47;1.00;;;12.20;99.90;;;;;;4954512;28;20726;-76
2022/03/12 19:47:52;;;;;;;1.83;1.00;;;12.20;99.90;;;;;;4954989;28;20210;-76
2022/03/12 19:50:20;;;;;;;1.30;0.90;;;12.20;99.90;;;;;;4955179;28;20215;-76
2022/03/12 19:52:48;;;;;;;2.13;1.20;;;12.20;99.90;;;;;;4954787;28;20230;-76
2022/03/12 19:55:16;;;;;;;1.60;1.00;;;12.30;99.90;;;;;;4954744;28;20214;-76
2022/03/12 19:57:43;;;;;;;1.27;0.83;;;12.30;99.90;;;;;;4954594;28;20251;-76
2022/03/12 20:00:11;;;;;;;1.37;0.97;;;12.30;99.90;;;;;;4954678;28;20211;-77
2022/03/12 20:02:39;;;;;;;2.40;1.07;;;12.20;99.90;;;;;;4954630;28;20266;-76
2022/03/12 20:05:07;;;;;;;1.57;0.90;;;12.20;99.90;;;;;;4954602;28;20232;-76
2022/03/12 20:07:34;;;;;;;1.30;0.80;;;12.00;99.90;;;;;;4954581;28;20260;-76
2022/03/12 20:10:01;;;;;;;2.37;0.90;;;11.90;99.90;;;;;;4954563;28;20219;-77
2022/03/12 20:12:28;;;;;;;1.73;0.90;;;11.90;99.90;;;;;;4954393;28;20223;-77
2022/03/12 20:14:55;;;;;;;1.30;0.83;;;11.90;99.90;;;;;;4955434;28;20208;-76
2022/03/12 20:17:23;;;;;;;1.33;0.80;;;11.90;99.90;;;;;;4958314;28;20240;-74
2022/03/12 20:19:54;;;;;;;1.30;0.77;;;11.90;99.90;;;;;;4958209;28;20227;-75
2022/03/12 20:22:21;;;;;;;1.00;0.60;;;11.90;99.90;;;;;;4957989;28;20659;-74
2022/03/12 20:24:48;;;;;;;1.23;0.70;;;11.90;99.90;;;;;;4958170;28;20242;-73
2022/03/12 20:27:20;;;;;;;1.33;0.83;;;11.90;99.90;;;;;;4956194;28;20201;-76
2022/03/12 20:29:49;;;;;;;1.30;0.80;;;11.80;99.90;;;;;;4957495;28;20224;-74
2022/03/12 20:32:17;;;;;;;2.50;0.83;;;11.90;99.90;;;;;;4957321;28;20262;-76
2022/03/12 20:34:46;;;;;;;1.47;0.80;;;12.00;99.90;;;;;;4957613;28;20204;-76
2022/03/12 20:37:15;;;;;;;1.00;0.70;;;11.90;99.90;;;;;;4957491;28;20236;-76
2022/03/12 20:39:43;;;;;;;1.03;0.70;;;11.90;99.90;;;;;;4957052;28;20611;-76
2022/03/12 20:42:10;;;;;;;1.27;0.80;;;11.90;99.90;;;;;;4954993;28;20302;-76
2022/03/12 20:44:37;;;;;;;1.60;0.80;;;11.90;99.90;;;;;;4954705;28;20234;-77
2022/03/12 20:47:05;;;;;;;1.17;0.70;;;11.90;99.90;;;;;;4950543;28;20215;-76
2022/03/12 20:49:32;;;;;;;1.30;0.80;;;11.80;99.90;;;;;;4957109;28;20224;-76
2022/03/12 20:51:59;;;;;;;1.30;0.77;;;11.90;99.90;;;;;;4956531;28;20200;-74
2022/03/12 20:54:27;;;;;;;1.63;1.00;;;11.90;99.90;;;;;;4956938;28;20213;-76
2022/03/12 20:56:54;;;;;;;3.03;0.87;;;11.90;99.90;;;;;;4957073;28;20215;-76
2022/03/12 20:59:21;;;;;;;1.53;0.60;;;11.90;99.90;;;;;;4956577;29;20235;-76
2022/03/12 21:01:48;;;;;;;0.80;0.50;;;11.90;99.90;;;;;;4956934;29;20259;-75
2022/03/12 21:04:18;;;;;;;1.30;0.87;;;11.90;99.90;;;;;;4955874;29;20310;-75
2022/03/12 21:06:45;;;;;;;2.13;0.77;;;11.90;99.90;;;;;;4956484;29;20251;-75
2022/03/12 21:09:12;;;;;;;1.03;0.70;;;11.90;99.90;;;;;;4952030;28;20225;-74
2022/03/12 21:11:40;;;;;;;1.10;0.80;;;11.90;99.90;;;;;;4937746;29;20213;-74
2022/03/12 21:14:07;;;;;;;1.63;1.00;;;11.90;99.90;;;;;;4937694;29;20208;-74
2022/03/12 21:16:34;;;;;;;2.10;1.10;;;11.80;99.90;;;;;;4937649;29;20211;-76
2022/03/12 21:19:01;;;;;;;1.67;0.90;;;11.80;99.90;;;;;;4937744;29;20235;-76
2022/03/12 21:21:28;;;;;;;4.23;0.80;;;11.80;99.90;;;;;;4942763;29;20204;-74
2022/03/12 21:23:56;;;;;;;1.73;0.90;;;11.90;99.90;;;;;;4956912;29;20216;-74
2022/03/12 21:26:26;;;;;;;1.57;0.90;;;11.90;99.90;;;;;;4956190;28;20298;-76
2022/03/12 21:28:55;;;;;;;2.17;0.87;;;12.00;99.90;;;;;;4955911;28;20738;-75
2022/03/12 21:31:22;;;;;;;1.30;0.80;;;12.00;99.90;;;;;;4957074;28;20219;-76
2022/03/12 21:33:49;;;;;;;2.03;0.80;;;12.10;99.90;;;;;;4955944;29;20730;-73
2022/03/12 21:36:16;;;;;;;1.13;0.70;;;12.10;99.90;;;;;;4956540;28;20208;-73
2022/03/12 21:38:43;;;;;;;1.63;0.87;;;12.10;99.90;;;;;;4956032;28;20228;-76
2022/03/12 21:41:11;;;;;;;1.53;0.77;;;12.10;99.90;;;;;;4956604;28;20208;-76
2022/03/12 21:43:41;;;;;;;1.40;0.73;;;12.00;99.90;;;;;;4956234;28;20208;-74
2022/03/12 21:46:11;;;;;;;1.30;0.90;;;12.10;99.90;;;;;;4956144;29;20906;-74
2022/03/12 21:48:41;;;;;;;2.07;1.03;;;12.10;99.90;;;;;;4955950;28;20255;-76
2022/03/12 21:51:09;;;;;;;4.17;0.90;;;12.00;99.90;;;;;;4955865;28;20328;-76
2022/03/12 21:53:36;;;;;;;1.77;1.00;;;12.00;99.90;;;;;;4956178;28;20567;-76
2022/03/12 21:56:04;;;;;;;1.73;0.90;;;11.90;99.90;;;;;;4956017;28;20211;-77
2022/03/12 21:58:32;;;;;;;1.50;1.10;;;11.90;99.90;;;;;;4955929;28;20228;-76
2022/03/12 22:00:59;;;;;;;2.33;0.80;;;12.00;99.90;;;;;;4955790;28;20686;-76
2022/03/12 22:03:28;;;;;;;1.23;0.70;;;11.80;99.90;;;;;;4955854;29;20267;-74
2022/03/12 22:05:55;;;;;;;2.27;0.90;;;11.70;99.90;;;;;;4955860;28;20235;-73
2022/03/12 22:08:22;;;;;;;1.50;0.80;;;11.70;99.90;;;;;;4955681;29;20318;-77
2022/03/12 22:10:48;;;;;;;2.27;1.10;;;11.70;99.90;;;;;;4955673;29;20262;-74
2022/03/12 22:13:19;;;;;;;2.90;1.00;;;11.90;99.90;;;;;;4955180;29;20200;-76
2022/03/12 22:15:48;;;;;;;1.70;0.83;;;11.90;99.90;;;;;;4955773;28;20215;-74
2022/03/12 22:18:16;;;;;;;1.40;0.90;;;11.90;99.90;;;;;;4955219;29;20228;-74
2022/03/12 22:20:45;;;;;;;1.30;0.90;;;11.70;99.90;;;;;;4955482;28;20880;-73
2022/03/12 22:23:13;;;;;;;1.03;0.77;;;11.70;99.90;;;;;;4955605;28;20216;-76
2022/03/12 22:25:40;;;;;;;1.60;0.90;;;11.70;99.90;;;;;;4955368;28;20267;-76
2022/03/12 22:28:09;;;;;;;1.93;0.80;;;11.70;99.90;;;;;;4954945;28;20232;-74